Time;durP1;ratioP1;P1;durP2;ratioP2;P2;SDS_P1;SDS_P2;PMS_P1;PMS_P2;Temp;Humidity;BMP_temperature;BMP_pressure;BME280_temperature;BME280_humidity;BME280_pressure;Samples;Min_cycle;Max_cycle;Signal;HPM_P1;HPM_P2
2023/07/03 00:00:47;;;;;;;;;;;;;;;22.61;45.38;99934.91;5408489;32;34843;-69
2023/07/03 00:03:51;;;;;;;;;;;;;;;22.60;45.48;99944.75;5404981;32;34097;-70
2023/07/03 00:06:54;;;;;;;;;;;;;;;22.33;46.12;99934.88;5408446;32;34926;-70
2023/07/03 00:09:55;;;;;;;;;;;;;;;22.35;46.25;99950.81;5403833;32;35293;-71
2023/07/03 00:12:57;;;;;;;;;;;;;;;22.47;46.10;99946.09;5407384;32;34539;-72
2023/07/03 00:16:00;;;;;;;;;;;;;;;22.13;46.84;99954.66;5393412;32;35931;-71
2023/07/03 00:19:03;;;;;;;;;;;;;;;22.51;46.15;99947.50;5390791;32;34262;-73
2023/07/03 00:22:05;;;;;;;;;;;;;;;22.25;46.80;99958.84;5408684;32;35086;-69
2023/07/03 00:25:07;;;;;;;;;;;;;;;22.16;46.95;99954.38;5388468;32;35273;-70
2023/07/03 00:28:09;;;;;;;;;;;;;;;21.92;47.67;99970.84;5401779;32;32951;-70
2023/07/03 00:31:11;;;;;;;;;;;;;;;22.07;47.48;99964.06;5400604;32;35418;-70
2023/07/03 00:34:13;;;;;;;;;;;;;;;22.51;46.42;99958.19;5406888;32;35605;-70
2023/07/03 00:37:15;;;;;;;;;;;;;;;22.95;45.31;99965.50;5410505;32;34663;-71
2023/07/03 00:40:17;;;;;;;;;;;;;;;22.04;47.26;99966.19;5404674;32;34735;-69
2023/07/03 00:43:19;;;;;;;;;;;;;;;22.52;46.49;99962.56;5408213;32;35097;-71
2023/07/03 00:46:21;;;;;;;;;;;;;;;22.88;45.38;99966.25;5399022;32;34295;-72
2023/07/03 00:49:23;;;;;;;;;;;;;;;23.25;44.62;99971.53;5412656;32;35026;-73
2023/07/03 00:52:25;;;;;;;;;;;;;;;23.26;44.58;99969.69;5389859;32;35398;-75
2023/07/03 00:55:27;;;;;;;;;;;;;;;23.52;43.80;99971.47;5391163;32;34543;-72
2023/07/03 00:58:29;;;;;;;;;;;;;;;23.11;44.83;99970.19;5401045;32;34421;-70
2023/07/03 01:01:34;;;;;;;;;;;;;;;22.66;45.64;99965.59;5401441;32;34964;-72
2023/07/03 01:04:42;;;;;;;;;;;;;;;22.68;45.65;99969.00;5395000;32;35768;-70
2023/07/03 01:07:44;;;;;;;;;;;;;;;22.87;45.38;99968.09;5404702;32;35181;-73
2023/07/03 01:10:46;;;;;;;;;;;;;;;23.43;43.78;99963.47;5405186;32;35640;-70
2023/07/03 01:13:48;;;;;;;;;;;;;;;22.69;45.51;99972.50;5390152;32;34873;-73
2023/07/03 01:16:50;;;;;;;;;;;;;;;22.96;44.92;99972.53;5391533;32;34840;-73
2023/07/03 01:19:52;;;;;;;;;;;;;;;23.09;44.49;99974.88;5393152;32;36082;-71
2023/07/03 01:23:03;;;;;;;;;;;;;;;22.92;44.69;99972.97;5404948;32;34871;-72
2023/07/03 01:26:05;;;;;;;;;;;;;;;22.46;45.93;99974.69;5407994;32;35401;-71
2023/07/03 01:29:07;;;;;;;;;;;;;;;21.83;47.16;99974.38;5387175;32;34353;-71
2023/07/03 01:32:09;;;;;;;;;;;;;;;22.35;46.14;99974.91;5394643;32;34953;-70
2023/07/03 01:35:11;;;;;;;;;;;;;;;22.19;46.21;99967.47;5402287;32;35093;-72
2023/07/03 01:38:13;;;;;;;;;;;;;;;22.39;45.37;99966.41;5392879;32;34238;-71
2023/07/03 01:41:16;;;;;;;;;;;;;;;22.08;46.03;99971.09;5404925;32;34398;-71
2023/07/03 01:44:18;;;;;;;;;;;;;;;22.04;46.24;99966.19;5387626;32;34920;-70
2023/07/03 01:47:20;;;;;;;;;;;;;;;22.47;45.12;99946.94;5403870;32;34885;-70
2023/07/03 01:50:23;;;;;;;;;;;;;;;22.41;44.67;99947.50;5401141;32;35350;-72
2023/07/03 01:53:26;;;;;;;;;;;;;;;22.59;44.63;99960.97;5406292;32;34601;-73
2023/07/03 01:56:32;;;;;;;;;;;;;;;21.92;45.84;99956.63;5388523;32;34538;-72
2023/07/03 01:59:34;;;;;;;;;;;;;;;22.69;44.27;99968.00;5402529;32;34748;-72
2023/07/03 02:02:36;;;;;;;;;;;;;;;22.84;43.70;99954.09;5381783;32;35113;-70
2023/07/03 02:05:38;;;;;;;;;;;;;;;22.52;44.63;99954.53;5403625;32;34720;-73
2023/07/03 02:08:40;;;;;;;;;;;;;;;22.75;44.09;99955.00;5402116;32;35184;-71
2023/07/03 02:11:44;;;;;;;;;;;;;;;22.73;44.04;99963.16;5376467;32;34218;-70
2023/07/03 02:14:46;;;;;;;;;;;;;;;22.54;44.83;99966.81;5404451;32;35185;-70
2023/07/03 02:17:51;;;;;;;;;;;;;;;22.36;45.39;99968.56;5393572;32;34564;-72
2023/07/03 02:20:53;;;;;;;;;;;;;;;22.38;45.26;99980.78;5402619;32;34923;-72
2023/07/03 02:23:55;;;;;;;;;;;;;;;22.71;44.51;99976.72;5403495;32;35016;-69
2023/07/03 02:26:57;;;;;;;;;;;;;;;23.07;43.87;99974.19;5402354;32;34890;-70
2023/07/03 02:29:59;;;;;;;;;;;;;;;22.57;44.55;99971.00;5406922;32;34523;-71
2023/07/03 02:33:01;;;;;;;;;;;;;;;22.28;45.48;99981.78;5385160;32;35038;-72
2023/07/03 02:36:03;;;;;;;;;;;;;;;22.14;45.88;99983.94;5405672;32;34755;-70
2023/07/03 02:39:09;;;;;;;;;;;;;;;22.14;45.79;99989.28;5404417;32;36042;-72
2023/07/03 02:42:11;;;;;;;;;;;;;;;22.44;44.90;99982.03;5400493;32;34905;-70
2023/07/03 02:45:13;;;;;;;;;;;;;;;22.34;44.95;99983.91;5402803;32;35504;-73
2023/07/03 02:48:15;;;;;;;;;;;;;;;22.87;44.28;99992.22;5400951;32;35531;-70
2023/07/03 02:51:17;;;;;;;;;;;;;;;22.86;43.91;99989.62;5406750;32;34590;-73
2023/07/03 02:54:19;;;;;;;;;;;;;;;22.03;45.37;100002.81;5404264;32;35399;-72
2023/07/03 02:57:21;;;;;;;;;;;;;;;22.02;45.46;100002.94;5405910;32;34918;-74
2023/07/03 03:00:23;;;;;;;;;;;;;;;22.51;44.44;99995.69;5390781;32;35268;-70
2023/07/03 03:03:25;;;;;;;;;;;;;;;22.33;44.46;99993.75;5398158;32;35728;-73
2023/07/03 03:06:27;;;;;;;;;;;;;;;22.57;44.22;99995.94;5407335;32;34149;-70
2023/07/03 03:09:29;;;;;;;;;;;;;;;23.19;42.86;99991.75;5403202;32;34947;-69
2023/07/03 03:12:31;;;;;;;;;;;;;;;23.60;41.70;99994.84;5380889;32;35678;-73
2023/07/03 03:15:34;;;;;;;;;;;;;;;23.19;42.56;100004.31;5403243;32;35128;-72
2023/07/03 03:18:36;;;;;;;;;;;;;;;22.56;43.83;100010.34;5404866;32;35214;-70
2023/07/03 03:21:38;;;;;;;;;;;;;;;21.85;45.76;100015.22;5379133;32;35118;-72
2023/07/03 03:24:40;;;;;;;;;;;;;;;22.26;44.95;100007.88;5389157;32;35124;-73
2023/07/03 03:27:42;;;;;;;;;;;;;;;22.33;44.56;100008.97;5393321;32;35394;-72
2023/07/03 03:30:44;;;;;;;;;;;;;;;22.94;43.65;100004.00;5401086;32;35099;-71
2023/07/03 03:33:46;;;;;;;;;;;;;;;22.98;43.46;100005.38;5392478;32;34764;-70
2023/07/03 03:36:47;;;;;;;;;;;;;;;23.37;42.59;100005.16;5406618;32;34883;-71
2023/07/03 03:39:49;;;;;;;;;;;;;;;23.37;42.41;100007.84;5390213;32;34376;-70
2023/07/03 03:42:51;;;;;;;;;;;;;;;23.53;42.08;100009.87;5390415;32;36503;-70
2023/07/03 03:45:55;;;;;;;;;;;;;;;22.64;43.87;100007.75;5400342;32;36734;-69
2023/07/03 03:48:57;;;;;;;;;;;;;;;22.69;44.07;100012.69;5403621;32;35741;-71
2023/07/03 03:51:59;;;;;;;;;;;;;;;22.78;43.75;100008.28;5402432;32;35464;-71
2023/07/03 03:55:01;;;;;;;;;;;;;;;22.84;43.77;100016.56;5406519;32;34638;-73
2023/07/03 03:58:03;;;;;;;;;;;;;;;23.06;42.77;100018.06;5384521;32;34831;-73
2023/07/03 04:01:05;;;;;;;;;;;;;;;23.94;41.72;100029.91;5389169;32;34963;-70
2023/07/03 04:04:07;;;;;;;;;;;;;;;24.26;40.51;100023.09;5388280;32;35972;-72
2023/07/03 04:07:08;;;;;;;;;;;;;;;23.35;42.14;100043.84;5399795;32;34546;-73
2023/07/03 04:10:11;;;;;;;;;;;;;;;23.19;42.97;100031.97;5402991;32;36142;-71
2023/07/03 04:13:13;;;;;;;;;;;;;;;23.74;41.15;100039.94;5402568;32;34305;-71
2023/07/03 04:16:15;;;;;;;;;;;;;;;23.06;41.22;100044.03;5405758;32;35711;-71
2023/07/03 04:19:18;;;;;;;;;;;;;;;23.04;41.47;100035.28;5400714;32;34364;-71
2023/07/03 04:22:20;;;;;;;;;;;;;;;23.14;41.37;100038.75;5402598;32;35027;-73
2023/07/03 04:25:22;;;;;;;;;;;;;;;23.31;40.88;100045.97;5390914;32;35480;-71
2023/07/03 04:28:24;;;;;;;;;;;;;;;23.96;39.65;100043.19;5401879;32;34916;-70
2023/07/03 04:31:26;;;;;;;;;;;;;;;24.16;39.23;100044.69;5377815;32;36224;-70
2023/07/03 04:34:28;;;;;;;;;;;;;;;23.89;39.37;100052.81;5401110;32;34114;-72
2023/07/03 04:37:30;;;;;;;;;;;;;;;23.78;39.66;100054.75;5393291;32;35634;-70
2023/07/03 04:40:36;;;;;;;;;;;;;;;24.27;39.05;100060.53;5399434;32;35265;-75
2023/07/03 04:43:44;;;;;;;;;;;;;;;24.00;39.44;100060.66;5401116;32;34764;-72
2023/07/03 04:46:46;;;;;;;;;;;;;;;24.18;39.20;100066.84;5404520;32;35473;-72
2023/07/03 04:49:48;;;;;;;;;;;;;;;24.59;38.15;100053.75;5401013;32;34765;-71
2023/07/03 04:52:51;;;;;;;;;;;;;;;24.99;37.63;100054.97;5408780;32;35371;-72
2023/07/03 04:55:53;;;;;;;;;;;;;;;25.61;36.86;100064.47;5404001;32;34632;-72
2023/07/03 04:58:57;;;;;;;;;;;;;;;25.75;36.91;100068.41;5408275;32;34477;-70
2023/07/03 05:01:59;;;;;;;;;;;;;;;26.03;36.73;100065.44;5404135;32;34988;-72
2023/07/03 05:05:01;;;;;;;;;;;;;;;26.69;35.34;100070.63;5404068;32;34302;-71
2023/07/03 05:08:03;;;;;;;;;;;;;;;27.58;33.66;100065.94;5406048;32;34483;-72
2023/07/03 05:11:05;;;;;;;;;;;;;;;27.28;34.51;100062.19;5403146;32;34800;-74
2023/07/03 05:14:07;;;;;;;;;;;;;;;28.52;32.63;100078.25;5407882;32;35391;-73
2023/07/03 05:17:09;;;;;;;;;;;;;;;27.97;33.71;100075.84;5389347;32;35407;-71
2023/07/03 05:20:13;;;;;;;;;;;;;;;28.71;32.68;100073.34;5407703;32;35177;-71
2023/07/03 05:23:17;;;;;;;;;;;;;;;28.73;32.51;100080.28;5404912;32;34711;-71
2023/07/03 05:26:19;;;;;;;;;;;;;;;29.75;31.07;100074.13;5402418;32;35602;-70
2023/07/03 05:29:21;;;;;;;;;;;;;;;29.71;31.03;100076.41;5392516;32;34270;-71
2023/07/03 05:32:23;;;;;;;;;;;;;;;28.30;32.73;100081.81;5386559;32;34350;-73
2023/07/03 05:35:25;;;;;;;;;;;;;;;29.83;30.57;100079.44;5407833;32;34708;-72
2023/07/03 05:38:27;;;;;;;;;;;;;;;29.50;31.05;100082.59;5405689;32;34698;-72
2023/07/03 05:41:29;;;;;;;;;;;;;;;30.29;29.86;100089.94;5393750;32;33634;-73
2023/07/03 05:44:31;;;;;;;;;;;;;;;29.62;30.73;100091.06;5402122;32;37338;-79
2023/07/03 05:47:35;;;;;;;;;;;;;;;30.19;29.47;100090.25;5382265;32;34809;-69
2023/07/03 05:50:37;;;;;;;;;;;;;;;30.40;29.02;100090.25;5408057;32;35351;-81
2023/07/03 05:53:39;;;;;;;;;;;;;;;30.33;28.85;100093.91;5384115;32;35464;-80
2023/07/03 05:56:43;;;;;;;;;;;;;;;30.78;28.40;100095.34;5405698;32;34138;-80
2023/07/03 05:59:45;;;;;;;;;;;;;;;31.07;28.13;100097.00;5399385;32;34361;-71
2023/07/03 06:02:47;;;;;;;;;;;;;;;31.34;27.19;100100.72;5400534;32;35485;-74
2023/07/03 06:05:49;;;;;;;;;;;;;;;31.50;26.80;100099.53;5404280;32;34953;-77
2023/07/03 06:08:51;;;;;;;;;;;;;;;31.82;25.78;100108.88;5399969;32;34220;-74
2023/07/03 06:11:55;;;;;;;;;;;;;;;32.50;25.11;100104.16;5405627;32;35170;-72
2023/07/03 06:14:58;;;;;;;;;;;;;;;32.52;24.97;100104.78;5399773;32;36824;-80
2023/07/03 06:18:02;;;;;;;;;;;;;;;32.74;24.70;100110.84;5376279;32;36375;-76
2023/07/03 06:21:05;;;;;;;;;;;;;;;33.28;24.76;100112.41;5371117;32;34265;-82
2023/07/03 06:24:07;;;;;;;;;;;;;;;33.33;23.95;100109.91;5396737;32;35087;-78
2023/07/03 06:27:09;;;;;;;;;;;;;;;32.97;24.81;100120.47;5397503;32;36347;-83
2023/07/03 06:30:11;;;;;;;;;;;;;;;32.56;25.04;100122.37;5388761;32;35141;-71
2023/07/03 06:33:13;;;;;;;;;;;;;;;33.54;23.19;100111.50;5402451;32;35585;-71
2023/07/03 06:36:21;;;;;;;;;;;;;;;34.61;22.32;100107.09;5380486;32;35382;-77
2023/07/03 06:39:23;;;;;;;;;;;;;;;31.32;25.85;100115.53;5408953;32;34193;-70
2023/07/03 06:42:25;;;;;;;;;;;;;;;32.46;24.71;100112.94;5402595;32;34319;-85
2023/07/03 06:45:27;;;;;;;;;;;;;;;32.45;24.35;100105.81;5398230;32;34293;-88
2023/07/03 06:48:30;;;;;;;;;;;;;;;32.08;25.15;100114.38;5408687;32;34270;-84
2023/07/03 06:51:32;;;;;;;;;;;;;;;33.30;23.55;100104.91;5396071;32;35774;-77
2023/07/03 06:54:34;;;;;;;;;;;;;;;34.62;21.53;100094.28;5401142;32;36005;-70
2023/07/03 06:57:36;;;;;;;;;;;;;;;35.18;20.69;100096.03;5393249;32;34427;-70
2023/07/03 07:00:37;;;;;;;;;;;;;;;33.88;21.92;100104.84;5391709;32;35113;-76
2023/07/03 07:03:40;;;;;;;;;;;;;;;32.66;23.91;100108.34;5387849;32;34635;-70
2023/07/03 07:06:42;;;;;;;;;;;;;;;33.31;23.09;100109.28;5380696;32;34789;-82
2023/07/03 07:09:44;;;;;;;;;;;;;;;34.24;21.21;100108.00;5386366;32;37168;-83
2023/07/03 07:12:46;;;;;;;;;;;;;;;31.00;24.55;100113.25;5379283;32;37094;-74
2023/07/03 07:15:48;;;;;;;;;;;;;;;33.25;22.19;100115.59;5390204;32;35939;-75
2023/07/03 07:18:51;;;;;;;;;;;;;;;34.30;20.67;100101.66;5373448;32;35781;-76
2023/07/03 07:21:54;;;;;;;;;;;;;;;34.92;19.98;100111.66;5385993;32;34078;-71
2023/07/03 07:24:56;;;;;;;;;;;;;;;34.70;20.23;100103.00;5353818;32;970934;-78
2023/07/03 07:27:58;;;;;;;;;;;;;;;35.57;18.96;100097.47;5370471;32;34160;-79
2023/07/03 07:31:04;;;;;;;;;;;;;;;34.62;19.74;100105.19;5388793;32;32932;-79
2023/07/03 07:34:07;;;;;;;;;;;;;;;37.77;16.49;100089.88;5385738;32;35374;-79
2023/07/03 07:37:09;;;;;;;;;;;;;;;36.58;17.36;100099.34;5388716;32;34789;-78
2023/07/03 07:40:11;;;;;;;;;;;;;;;34.06;19.06;100101.41;5385995;32;35701;-79
2023/07/03 07:43:13;;;;;;;;;;;;;;;34.85;18.65;100099.94;5386556;32;34137;-79
2023/07/03 07:46:15;;;;;;;;;;;;;;;36.33;16.67;100099.53;5379839;32;35496;-74
2023/07/03 07:49:17;;;;;;;;;;;;;;;35.19;16.82;100098.53;5384193;32;35409;-79
2023/07/03 07:52:19;;;;;;;;;;;;;;;33.98;17.69;100103.56;5390209;32;34329;-75
2023/07/03 07:55:21;;;;;;;;;;;;;;;32.15;19.62;100108.94;5386908;32;34774;-81
2023/07/03 07:58:24;;;;;;;;;;;;;;;33.02;18.55;100120.66;5374430;32;35643;-77
2023/07/03 08:01:26;;;;;;;;;;;;;;;32.91;19.01;100111.25;5366741;32;34839;-79
2023/07/03 08:04:28;;;;;;;;;;;;;;;35.40;17.30;100108.16;5388376;32;34765;-80
2023/07/03 08:07:31;;;;;;;;;;;;;;;35.39;16.28;100102.94;5372564;32;34347;-79
2023/07/03 08:10:34;;;;;;;;;;;;;;;34.62;16.98;100110.66;5358934;32;34368;-74
2023/07/03 08:13:37;;;;;;;;;;;;;;;35.15;16.74;100118.34;5389339;32;34258;-75
2023/07/03 08:16:39;;;;;;;;;;;;;;;34.17;17.55;100113.50;5379756;32;36644;-73
2023/07/03 08:19:41;;;;;;;;;;;;;;;35.07;17.05;100102.25;5359640;32;34289;-76
2023/07/03 08:22:43;;;;;;;;;;;;;;;34.08;17.87;100112.09;5381055;32;34789;-76
2023/07/03 08:25:50;;;;;;;;;;;;;;;34.86;17.15;100115.25;5391251;32;33565;-74
2023/07/03 08:28:53;;;;;;;;;;;;;;;35.40;17.02;100113.62;5382873;32;35982;-76
2023/07/03 08:31:55;;;;;;;;;;;;;;;33.71;18.50;100113.75;5389358;32;34291;-78
2023/07/03 08:34:57;;;;;;;;;;;;;;;33.94;18.55;100108.59;5390938;32;35369;-77
2023/07/03 08:38:02;;;;;;;;;;;;;;;34.40;18.39;100111.03;5389652;32;34526;-82
2023/07/03 08:41:05;;;;;;;;;;;;;;;35.26;17.88;100112.94;5374241;32;36385;-77
2023/07/03 08:44:07;;;;;;;;;;;;;;;36.15;16.88;100107.81;5384742;32;34464;-71
2023/07/03 08:47:12;;;;;;;;;;;;;;;35.33;17.70;100118.34;5384121;32;35936;-75
2023/07/03 08:50:15;;;;;;;;;;;;;;;34.95;18.02;100124.84;5378270;32;34274;-73
2023/07/03 08:53:31;;;;;;;;;;;;;;;35.61;17.17;100120.53;5386046;32;33728;-73
2023/07/03 08:56:33;;;;;;;;;;;;;;;36.33;16.54;100121.44;5392293;32;35542;-72
2023/07/03 08:59:35;;;;;;;;;;;;;;;37.20;15.73;100117.19;5365349;32;35600;-78
2023/07/03 09:02:37;;;;;;;;;;;;;;;35.20;17.25;100119.31;5383098;32;34097;-71
2023/07/03 09:05:45;;;;;;;;;;;;;;;36.77;15.69;100110.16;5391684;32;34368;-72
2023/07/03 09:08:47;;;;;;;;;;;;;;;36.48;16.30;100114.69;5401618;32;34209;-72
2023/07/03 09:11:51;;;;;;;;;;;;;;;37.34;15.40;100111.22;5397378;32;35635;-76
2023/07/03 09:15:03;;;;;;;;;;;;;;;36.68;16.43;100109.69;5390813;32;35866;-80
2023/07/03 09:18:10;;;;;;;;;;;;;;;35.22;17.30;100117.19;5385735;32;35488;-79
2023/07/03 09:21:12;;;;;;;;;;;;;;;35.61;17.31;100115.06;5378161;32;34331;-80
2023/07/03 09:24:14;;;;;;;;;;;;;;;36.13;16.69;100109.09;5396759;32;34385;-77
2023/07/03 09:27:24;;;;;;;;;;;;;;;35.91;16.95;100115.13;5389190;32;35078;-78
2023/07/03 09:30:26;;;;;;;;;;;;;;;36.56;15.91;100125.28;5393546;32;35972;-81
2023/07/03 09:33:28;;;;;;;;;;;;;;;36.65;15.58;100110.19;5389512;32;34473;-70
2023/07/03 09:36:34;;;;;;;;;;;;;;;34.84;17.50;100109.16;5376880;32;34240;-77
2023/07/03 09:39:36;;;;;;;;;;;;;;;35.62;16.73;100110.44;5385205;32;34373;-69
2023/07/03 09:42:40;;;;;;;;;;;;;;;36.72;15.58;100130.06;5390482;32;34306;-88
2023/07/03 09:45:42;;;;;;;;;;;;;;;37.36;14.81;100121.97;5393064;32;34318;-90
2023/07/03 09:48:45;;;;;;;;;;;;;;;39.43;13.23;100113.97;5397444;32;35347;-81
2023/07/03 09:51:51;;;;;;;;;;;;;;;36.95;15.43;100123.78;5392455;32;34427;-76
2023/07/03 09:54:53;;;;;;;;;;;;;;;36.06;15.99;100120.97;5377807;32;35921;-74
2023/07/03 09:57:56;;;;;;;;;;;;;;;37.32;15.06;100115.25;5387621;32;34387;-80
2023/07/03 10:00:59;;;;;;;;;;;;;;;37.08;14.97;100119.94;5378081;32;35935;-70
2023/07/03 10:04:05;;;;;;;;;;;;;;;35.48;16.51;100115.25;5375274;32;34182;-78
2023/07/03 10:07:13;;;;;;;;;;;;;;;35.40;16.94;100116.34;5380510;32;35917;-73
2023/07/03 10:10:17;;;;;;;;;;;;;;;36.72;15.87;100102.69;5389701;32;34280;-75
2023/07/03 10:13:24;;;;;;;;;;;;;;;37.40;15.15;100107.50;5383224;32;34451;-76
2023/07/03 10:16:26;;;;;;;;;;;;;;;34.90;17.09;100110.16;5387304;32;34389;-75
2023/07/03 10:19:28;;;;;;;;;;;;;;;35.96;16.10;100106.22;5384245;32;36365;-77
2023/07/03 10:22:30;;;;;;;;;;;;;;;34.92;17.22;100106.19;5379430;32;34245;-79
2023/07/03 10:25:34;;;;;;;;;;;;;;;36.97;15.36;100098.88;5380488;32;35718;-87
2023/07/03 10:28:48;;;;;;;;;;;;;;;34.42;17.91;100106.19;5373757;32;34466;-82
2023/07/03 10:31:51;;;;;;;;;;;;;;;34.69;17.35;100112.25;5388692;32;36421;-75
2023/07/03 10:35:09;;;;;;;;;;;;;;;35.91;15.75;100104.19;5380387;32;34334;-75
2023/07/03 10:38:30;;;;;;;;;;;;;;;34.43;17.20;100113.31;5378837;32;36185;-76
2023/07/03 10:41:32;;;;;;;;;;;;;;;34.97;16.83;100105.50;5389249;32;34508;-87
2023/07/03 10:44:37;;;;;;;;;;;;;;;36.06;15.99;100109.22;5378946;32;35963;-82
2023/07/03 10:47:40;;;;;;;;;;;;;;;34.36;17.30;100112.50;5370044;32;34669;-69
2023/07/03 10:50:57;;;;;;;;;;;;;;;34.48;17.43;100118.94;5367905;32;35578;-72
2023/07/03 10:54:03;;;;;;;;;;;;;;;35.74;16.25;100111.31;5371133;32;34480;-70
2023/07/03 10:57:07;;;;;;;;;;;;;;;37.06;15.49;100109.22;5375559;32;34661;-71
2023/07/03 11:00:12;;;;;;;;;;;;;;;35.90;16.70;100109.84;5372742;32;35845;-73
2023/07/03 11:03:20;;;;;;;;;;;;;;;37.43;14.75;100106.22;5380802;32;35984;-74
2023/07/03 11:06:22;;;;;;;;;;;;;;;37.33;15.25;100105.97;5359065;32;35256;-75
2023/07/03 11:09:39;;;;;;;;;;;;;;;34.57;17.84;100105.03;5376424;32;35520;-75
2023/07/03 11:13:02;;;;;;;;;;;;;;;35.81;16.84;100112.09;5370021;32;36163;-70
2023/07/03 11:16:10;;;;;;;;;;;;;;;34.95;17.46;100105.72;5359227;32;34470;-70
2023/07/03 11:19:12;;;;;;;;;;;;;;;34.84;18.07;100109.16;5367480;32;36481;-68
2023/07/03 11:22:25;;;;;;;;;;;;;;;37.37;15.80;100098.97;5372887;32;33461;-80
2023/07/03 11:25:37;;;;;;;;;;;;;;;37.96;15.43;100091.34;5365594;32;36413;-84
2023/07/03 11:28:43;;;;;;;;;;;;;;;36.63;17.11;100098.63;5369747;32;34335;-83
2023/07/03 11:31:45;;;;;;;;;;;;;;;36.40;17.06;100101.34;5360015;32;34655;-80
2023/07/03 11:34:48;;;;;;;;;;;;;;;35.22;18.31;100097.25;5381929;32;34366;-79
2023/07/03 11:38:00;;;;;;;;;;;;;;;35.30;18.40;100090.66;5386204;32;34098;-75
2023/07/03 11:41:08;;;;;;;;;;;;;;;37.47;16.53;100092.84;5396896;32;33874;-72
2023/07/03 11:44:31;;;;;;;;;;;;;;;36.54;17.54;100095.41;5386488;32;34268;-83
2023/07/03 11:47:33;;;;;;;;;;;;;;;35.94;18.27;100094.66;5396384;32;34279;-75
2023/07/03 11:50:38;;;;;;;;;;;;;;;35.97;17.97;100097.78;5387707;32;35834;-73
2023/07/03 11:53:47;;;;;;;;;;;;;;;34.72;19.62;100100.06;5387062;32;34622;-76
2023/07/03 11:57:08;;;;;;;;;;;;;;;36.65;17.63;100087.44;5376087;32;34423;-84
2023/07/03 12:00:18;;;;;;;;;;;;;;;37.36;17.10;100078.13;5388402;32;34303;-76
2023/07/03 12:03:41;;;;;;;;;;;;;;;34.40;19.92;100085.63;5390594;32;35783;-74
2023/07/03 12:06:43;;;;;;;;;;;;;;;34.40;20.22;100094.66;5386301;32;35571;-76
2023/07/03 12:09:49;;;;;;;;;;;;;;;33.74;20.96;100086.88;5389148;32;35568;-76
2023/07/03 12:13:10;;;;;;;;;;;;;;;33.35;21.08;100091.44;5389247;32;33706;-76
2023/07/03 12:16:17;;;;;;;;;;;;;;;33.11;21.31;100100.34;5369751;32;34440;-75
2023/07/03 12:19:19;;;;;;;;;;;;;;;33.11;21.56;100092.19;5392147;32;35137;-75
2023/07/03 12:22:25;;;;;;;;;;;;;;;33.83;20.82;100091.03;5391696;32;35881;-75
2023/07/03 12:25:28;;;;;;;;;;;;;;;33.45;21.50;100088.31;5391133;32;33863;-75
2023/07/03 12:28:30;;;;;;;;;;;;;;;32.40;22.58;100092.03;5385342;32;35590;-74
2023/07/03 12:31:32;;;;;;;;;;;;;;;32.70;22.32;100095.16;5390988;32;34020;-74
2023/07/03 12:34:35;;;;;;;;;;;;;;;33.05;21.80;100104.75;5391167;32;34295;-75
2023/07/03 12:37:44;;;;;;;;;;;;;;;31.89;23.15;100100.72;5385646;32;35739;-74
2023/07/03 12:40:46;;;;;;;;;;;;;;;31.87;23.15;100102.81;5386691;32;33609;-75
2023/07/03 12:43:48;;;;;;;;;;;;;;;32.04;23.07;100094.06;5395717;32;32872;-73
2023/07/03 12:47:09;;;;;;;;;;;;;;;31.67;23.69;100098.13;5387045;32;35682;-72
2023/07/03 12:50:15;;;;;;;;;;;;;;;31.23;24.12;100101.25;5387218;32;34628;-71
2023/07/03 12:53:18;;;;;;;;;;;;;;;30.96;24.53;100102.97;5383270;32;34061;-75
2023/07/03 12:56:20;;;;;;;;;;;;;;;32.00;23.48;100100.09;5391572;32;34403;-74
2023/07/03 12:59:23;;;;;;;;;;;;;;;31.19;24.50;100089.97;5386584;32;35511;-74
2023/07/03 13:02:29;;;;;;;;;;;;;;;31.46;24.16;100090.09;5385048;32;35492;-75
2023/07/03 13:05:32;;;;;;;;;;;;;;;31.88;23.55;100099.91;5383353;32;34460;-75
2023/07/03 13:08:34;;;;;;;;;;;;;;;30.83;24.64;100103.72;5381758;32;34570;-72
2023/07/03 13:11:38;;;;;;;;;;;;;;;32.24;23.33;100093.25;5391910;32;34274;-79
2023/07/03 13:14:47;;;;;;;;;;;;;;;32.34;23.14;100097.28;5366326;32;35365;-79
2023/07/03 13:18:00;;;;;;;;;;;;;;;31.51;24.06;100088.47;5391489;32;34427;-76
2023/07/03 13:21:04;;;;;;;;;;;;;;;32.90;22.74;100089.69;5390425;32;33380;-77
2023/07/03 13:24:10;;;;;;;;;;;;;;;31.22;24.99;100091.41;5379245;32;34481;-74
2023/07/03 13:27:22;;;;;;;;;;;;;;;30.76;25.65;100086.56;5391296;32;35771;-72
2023/07/03 13:30:26;;;;;;;;;;;;;;;31.05;25.31;100073.81;5393541;32;36682;-72
2023/07/03 13:33:28;;;;;;;;;;;;;;;30.79;26.11;100080.75;5391744;32;35077;-79
2023/07/03 13:36:35;;;;;;;;;;;;;;;31.06;26.08;100086.34;5389207;32;35869;-72
2023/07/03 13:39:38;;;;;;;;;;;;;;;30.71;26.69;100075.47;5369424;32;34682;-74
2023/07/03 13:42:42;;;;;;;;;;;;;;;31.41;25.68;100082.56;5394659;32;34227;-73
2023/07/03 13:45:44;;;;;;;;;;;;;;;31.30;26.16;100077.72;5382873;32;34162;-75
2023/07/03 13:48:46;;;;;;;;;;;;;;;30.69;26.59;100075.66;5391919;32;34832;-73
2023/07/03 13:51:49;;;;;;;;;;;;;;;31.02;26.28;100075.88;5383838;32;34154;-74
2023/07/03 13:54:51;;;;;;;;;;;;;;;29.80;27.78;100077.94;5365899;32;34459;-76
2023/07/03 13:57:53;;;;;;;;;;;;;;;31.36;26.18;100076.91;5394668;32;34752;-76
2023/07/03 14:00:55;;;;;;;;;;;;;;;30.66;27.27;100078.75;5383984;32;34698;-74
2023/07/03 14:03:57;;;;;;;;;;;;;;;30.42;27.90;100081.91;5382892;32;35696;-72
2023/07/03 14:06:59;;;;;;;;;;;;;;;30.60;27.57;100076.84;5388470;32;36252;-71
2023/07/03 14:10:02;;;;;;;;;;;;;;;31.68;26.09;100077.22;5390611;32;34490;-75
2023/07/03 14:13:05;;;;;;;;;;;;;;;30.90;27.26;100077.47;5394267;32;34848;-72
2023/07/03 14:16:07;;;;;;;;;;;;;;;31.31;26.81;100084.00;5384921;32;34822;-72
2023/07/03 14:19:09;;;;;;;;;;;;;;;30.72;27.95;100083.44;5371032;32;35471;-76
2023/07/03 14:22:11;;;;;;;;;;;;;;;31.32;27.47;100074.81;5392859;32;34367;-78
2023/07/03 14:25:14;;;;;;;;;;;;;;;31.15;27.35;100079.69;5393503;32;34330;-85
2023/07/03 14:28:15;;;;;;;;;;;;;;;30.89;27.95;100069.53;5373792;32;35605;-72
2023/07/03 14:31:17;;;;;;;;;;;;;;;31.32;27.22;100072.09;5386918;32;34300;-74
2023/07/03 14:34:20;;;;;;;;;;;;;;;30.78;27.92;100073.63;5391499;32;35223;-76
2023/07/03 14:37:22;;;;;;;;;;;;;;;30.65;28.08;100082.47;5385952;32;34475;-77
2023/07/03 14:40:24;;;;;;;;;;;;;;;31.07;27.74;100077.16;5387288;32;34334;-78
2023/07/03 14:43:26;;;;;;;;;;;;;;;30.50;28.39;100078.22;5380937;32;36631;-78
2023/07/03 14:46:28;;;;;;;;;;;;;;;31.28;27.52;100074.37;5382495;32;35413;-71
2023/07/03 14:49:30;;;;;;;;;;;;;;;31.18;27.15;100074.72;5389440;32;35632;-69
2023/07/03 14:52:42;;;;;;;;;;;;;;;30.13;28.77;100072.88;5389807;32;35877;-72
2023/07/03 14:55:51;;;;;;;;;;;;;;;30.57;27.73;100070.97;5392573;32;34706;-76
2023/07/03 14:58:53;;;;;;;;;;;;;;;30.61;27.97;100066.81;5391846;32;34256;-71
2023/07/03 15:01:55;;;;;;;;;;;;;;;30.55;28.37;100060.31;5388266;32;34433;-70
2023/07/03 15:04:57;;;;;;;;;;;;;;;30.61;28.45;100056.81;5388335;32;35411;-72
2023/07/03 15:07:59;;;;;;;;;;;;;;;31.39;27.62;100062.94;5395006;32;34918;-75
2023/07/03 15:11:02;;;;;;;;;;;;;;;31.01;27.98;100060.63;5393481;32;34229;-75
2023/07/03 15:14:05;;;;;;;;;;;;;;;31.95;26.11;100059.16;5390942;32;34516;-77
2023/07/03 15:17:11;;;;;;;;;;;;;;;30.48;28.37;100062.12;5397623;32;34754;-76
2023/07/03 15:20:14;;;;;;;;;;;;;;;30.98;27.83;100058.34;5403293;32;36128;-75
2023/07/03 15:23:16;;;;;;;;;;;;;;;30.45;28.75;100057.09;5402815;32;34101;-76
2023/07/03 15:26:19;;;;;;;;;;;;;;;30.42;27.95;100058.34;5390335;32;36615;-81
2023/07/03 15:29:21;;;;;;;;;;;;;;;30.09;28.54;100051.78;5391156;32;34364;-82
2023/07/03 15:32:23;;;;;;;;;;;;;;;31.32;27.28;100043.06;5401503;32;34464;-80
2023/07/03 15:35:25;;;;;;;;;;;;;;;30.65;27.96;100054.53;5405699;32;35651;-74
2023/07/03 15:38:27;;;;;;;;;;;;;;;30.80;28.76;100051.75;5404079;32;34476;-67
2023/07/03 15:41:29;;;;;;;;;;;;;;;30.52;29.73;100051.72;5402650;32;34391;-73
2023/07/03 15:44:31;;;;;;;;;;;;;;;30.95;29.04;100050.56;5407992;32;34503;-74